McAlpin, Florida
Current Conditions -  °F | °C
As of 12:55 PM on Tuesday 21 Oct 2014 (Local Time) from K24J Reporting Station
Clear Clear  
Wind Chill: 81°   Ceiling: Unl
Heat Index: 81°   Visibility: 10mi
Dew Point: 61°   Wind: 5mph
Humidity: 51%   Direction: 10°N
Pressure: 30"   Gusts: NA
Location:  30.14°N, 82.95°W
Report Text: K24J 211655Z AUTO 01004KT 10SM CLR 27/16 A3000 RMK AO1
Loading
Personal Weather Stations






























Interactive Weather Map
Tropical Storm Tracking
New forecast layout! Learn more

10-Day Weather Forecast

Advertisements
Track Severe Weather on mobile